Time;durP1;ratioP1;P1;durP2;ratioP2;P2;SDS_P1;SDS_P2;PMS_P1;PMS_P2;Temp;Humidity;BMP_temperature;BMP_pressure;BME280_temperature;BME280_humidity;BME280_pressure;Samples;Min_cycle;Max_cycle;Signal;HPM_P1;HPM_P2
2022/06/22 00:01:36;;;;;;;3.42;1.95;;;18.10;99.90;;;;;;5065071;28;20396;-62
2022/06/22 00:04:03;;;;;;;2.75;2.15;;;18.10;99.90;;;;;;5065364;28;20405;-61
2022/06/22 00:06:46;;;;;;;3.28;1.98;;;18.10;99.90;;;;;;5083817;28;20785;-61
2022/06/22 00:09:32;;;;;;;3.37;2.13;;;18.00;99.90;;;;;;5084165;28;20889;-61
2022/06/22 00:11:58;;;;;;;4.00;2.28;;;17.90;99.90;;;;;;5086329;28;20457;-61
2022/06/22 00:14:41;;;;;;;4.50;2.30;;;17.80;99.90;;;;;;5088398;28;20402;-61
2022/06/22 00:17:24;;;;;;;5.63;2.38;;;17.50;99.90;;;;;;5090571;28;20406;-61
2022/06/22 00:19:56;;;;;;;4.38;2.15;;;17.50;99.90;;;;;;5091360;28;20455;-63
2022/06/22 00:22:25;;;;;;;4.55;2.38;;;17.50;99.90;;;;;;5090629;28;20476;-61
2022/06/22 00:25:18;;;;;;;5.10;2.70;;;17.40;99.90;;;;;;5091335;28;20436;-61
2022/06/22 00:27:44;;;;;;;4.85;2.78;;;17.40;99.90;;;;;;5090322;28;20474;-61
2022/06/22 00:30:09;;;;;;;6.20;2.80;;;17.50;99.90;;;;;;5090472;28;20386;-62
2022/06/22 00:32:35;;;;;;;5.93;3.13;;;17.40;99.90;;;;;;5089235;28;20611;-61
2022/06/22 00:35:38;;;;;;;5.07;2.53;;;17.40;99.90;;;;;;5086853;28;20721;-61
2022/06/22 00:38:05;;;;;;;4.07;2.43;;;17.30;99.90;;;;;;5087170;28;20475;-61
2022/06/22 00:40:34;;;;;;;4.60;2.70;;;17.40;99.90;;;;;;5088993;28;20382;-61
2022/06/22 00:43:00;;;;;;;3.90;2.40;;;17.40;99.90;;;;;;5089557;28;20385;-61
2022/06/22 00:45:28;;;;;;;4.50;2.20;;;17.20;99.90;;;;;;5087664;28;20397;-61
2022/06/22 00:48:06;;;;;;;4.60;2.60;;;17.20;99.90;;;;;;5088525;28;20507;-61
2022/06/22 00:50:44;;;;;;;5.07;2.67;;;17.20;99.90;;;;;;5086133;28;20508;-62
2022/06/22 00:53:20;;;;;;;6.40;2.83;;;17.20;99.90;;;;;;5087726;28;20397;-61
2022/06/22 00:56:21;;;;;;;6.47;3.13;;;17.10;99.90;;;;;;5086401;28;20420;-60
2022/06/22 00:59:02;;;;;;;3.55;2.58;;;17.00;99.90;;;;;;5083144;28;20497;-61
2022/06/22 01:01:35;;;;;;;5.17;2.70;;;17.10;99.90;;;;;;5087162;28;20386;-60
2022/06/22 01:04:25;;;;;;;6.30;2.65;;;17.00;99.90;;;;;;5084644;28;20382;-61
2022/06/22 01:06:56;;;;;;;4.70;2.88;;;17.00;99.90;;;;;;5084800;28;20496;-61
2022/06/22 01:09:58;;;;;;;5.20;2.80;;;17.00;99.90;;;;;;5086374;28;20716;-61
2022/06/22 01:12:28;;;;;;;4.35;2.95;;;16.90;99.90;;;;;;5087503;28;20448;-61
2022/06/22 01:15:20;;;;;;;5.20;2.65;;;16.90;99.90;;;;;;5088363;28;20650;-60
2022/06/22 01:18:15;;;;;;;3.85;2.90;;;16.90;99.90;;;;;;5089618;28;20801;-60
2022/06/22 01:21:24;;;;;;;5.93;2.80;;;16.80;99.90;;;;;;5091777;28;20694;-62
2022/06/22 01:24:19;;;;;;;4.85;2.95;;;16.70;99.90;;;;;;5088893;28;20494;-61
2022/06/22 01:27:10;;;;;;;4.53;2.87;;;16.70;99.90;;;;;;5081360;28;20487;-61
2022/06/22 01:29:54;;;;;;;4.80;3.00;;;16.70;99.90;;;;;;5088886;28;20653;-61
2022/06/22 01:32:25;;;;;;;5.32;2.85;;;16.60;99.90;;;;;;5087031;28;20409;-61
2022/06/22 01:34:55;;;;;;;4.77;3.00;;;16.50;99.90;;;;;;5088218;28;20416;-61
2022/06/22 01:37:24;;;;;;;5.43;2.92;;;16.40;99.90;;;;;;5090669;28;20544;-61
2022/06/22 01:40:01;;;;;;;5.85;2.95;;;16.30;99.90;;;;;;5094188;28;20521;-61
2022/06/22 01:42:45;;;;;;;5.88;3.08;;;16.30;99.90;;;;;;5095042;28;20397;-61
2022/06/22 01:45:33;;;;;;;4.55;2.95;;;16.30;99.90;;;;;;5095758;28;20424;-61
2022/06/22 01:48:12;;;;;;;6.18;3.33;;;16.30;99.90;;;;;;5094584;28;20402;-61
2022/06/22 01:50:48;;;;;;;4.95;3.08;;;16.30;99.90;;;;;;5093376;28;20398;-61
2022/06/22 01:53:37;;;;;;;5.72;3.20;;;16.30;99.90;;;;;;5093136;28;20665;-61
2022/06/22 01:56:14;;;;;;;4.38;3.20;;;16.30;99.90;;;;;;5092082;28;20934;-61
2022/06/22 01:59:03;;;;;;;5.00;3.10;;;16.20;99.90;;;;;;5094282;28;20419;-61
2022/06/22 02:01:47;;;;;;;4.13;3.10;;;16.20;99.90;;;;;;5091911;28;20653;-61
2022/06/22 02:04:22;;;;;;;5.90;3.35;;;16.10;99.90;;;;;;5093299;28;20386;-61
2022/06/22 02:10:03;;;;;;;5.60;3.47;;;16.00;99.90;;;;;;5093781;28;20402;-61
2022/06/22 02:12:35;;;;;;;6.25;3.42;;;16.00;99.90;;;;;;5092933;28;20493;-61
2022/06/22 02:15:18;;;;;;;4.72;3.40;;;16.00;99.90;;;;;;5092890;28;20381;-61
2022/06/22 02:17:45;;;;;;;6.18;3.40;;;16.00;99.90;;;;;;5090300;28;20392;-61
2022/06/22 02:20:29;;;;;;;6.63;3.83;;;15.90;99.90;;;;;;5091254;28;20472;-61
2022/06/22 02:23:25;;;;;;;5.32;3.20;;;15.90;99.90;;;;;;5092207;28;20393;-61
2022/06/22 02:26:01;;;;;;;5.80;3.67;;;15.90;99.90;;;;;;5090265;28;20393;-61
2022/06/22 02:28:27;;;;;;;6.33;3.97;;;15.90;99.90;;;;;;5091225;28;20493;-62
2022/06/22 02:30:53;;;;;;;6.80;3.80;;;15.80;99.90;;;;;;5093025;28;20473;-61
2022/06/22 02:33:19;;;;;;;7.18;3.95;;;15.80;99.90;;;;;;5094518;28;20374;-61
2022/06/22 02:35:46;;;;;;;5.43;3.73;;;15.80;99.90;;;;;;5093869;28;20389;-61
2022/06/22 02:38:14;;;;;;;6.25;4.30;;;15.80;99.90;;;;;;5094350;28;20410;-61
2022/06/22 02:46:18;;;;;;;7.47;3.95;;;15.70;99.90;;;;;;5096108;28;20481;-60
2022/06/22 02:48:48;;;;;;;5.97;4.22;;;15.60;99.90;;;;;;5094085;28;20370;-61
2022/06/22 02:51:29;;;;;;;4.97;3.60;;;15.60;99.90;;;;;;5090812;28;20375;-61
2022/06/22 02:53:58;;;;;;;5.47;4.13;;;15.60;99.90;;;;;;5093685;28;20447;-61
2022/06/22 02:56:31;;;;;;;5.83;4.33;;;15.60;99.90;;;;;;5092738;28;20382;-61
2022/06/22 02:58:56;;;;;;;6.77;4.30;;;15.60;99.90;;;;;;5091763;28;20386;-60
2022/06/22 03:01:26;;;;;;;4.77;4.20;;;15.50;99.90;;;;;;5092634;28;20383;-60
2022/06/22 03:03:56;;;;;;;7.72;4.15;;;15.50;99.90;;;;;;5092423;28;20413;-62
2022/06/22 03:06:31;;;;;;;5.80;3.97;;;15.50;99.90;;;;;;5092098;28;20421;-61
2022/06/22 03:09:01;;;;;;;7.70;4.60;;;15.50;99.90;;;;;;5092581;28;20469;-61
2022/06/22 03:11:26;;;;;;;7.70;4.47;;;15.40;99.90;;;;;;5093443;28;20456;-61
2022/06/22 03:13:57;;;;;;;6.53;4.53;;;15.40;99.90;;;;;;5091229;28;20566;-60
2022/06/22 03:16:29;;;;;;;6.15;4.45;;;15.40;99.90;;;;;;5090172;28;20390;-61
2022/06/22 03:18:59;;;;;;;6.25;4.38;;;15.30;99.90;;;;;;5089599;28;20382;-61
2022/06/22 03:21:25;;;;;;;4.57;3.78;;;15.30;99.90;;;;;;5089167;28;20488;-61
2022/06/22 03:24:00;;;;;;;5.50;4.22;;;15.30;99.90;;;;;;5088593;28;20477;-60
2022/06/22 03:26:32;;;;;;;6.50;3.95;;;15.20;99.90;;;;;;5089287;28;20443;-61
2022/06/22 03:29:11;;;;;;;5.53;4.07;;;15.20;99.90;;;;;;5087219;28;20662;-61
2022/06/22 03:31:43;;;;;;;4.53;4.13;;;15.20;99.90;;;;;;5086792;28;20467;-62
2022/06/22 03:34:15;;;;;;;6.50;4.10;;;15.20;99.90;;;;;;5086389;28;20903;-61
2022/06/22 03:36:45;;;;;;;5.97;4.47;;;15.20;99.90;;;;;;5089401;28;20641;-61
2022/06/22 03:39:15;;;;;;;7.60;4.33;;;15.20;99.90;;;;;;5089637;28;20378;-60
2022/06/22 03:41:55;;;;;;;8.32;4.70;;;15.10;99.90;;;;;;5089745;28;20797;-62
2022/06/22 03:44:45;;;;;;;6.35;4.25;;;15.10;99.90;;;;;;5089672;28;20394;-61
2022/06/22 03:47:20;;;;;;;5.22;4.03;;;15.10;99.90;;;;;;5087959;28;20684;-61
2022/06/22 03:50:07;;;;;;;6.82;4.50;;;15.10;99.90;;;;;;5088490;28;20413;-62
2022/06/22 03:52:46;;;;;;;9.05;5.35;;;14.90;99.90;;;;;;5089107;28;20538;-61
2022/06/22 03:55:20;;;;;;;6.20;4.88;;;14.80;99.90;;;;;;5088179;28;20508;-60
2022/06/22 03:57:49;;;;;;;6.23;4.40;;;14.80;99.90;;;;;;5087496;28;20432;-61
2022/06/22 04:00:16;;;;;;;5.57;4.32;;;14.90;99.90;;;;;;5088240;28;20544;-61
2022/06/22 04:02:43;;;;;;;6.60;4.70;;;14.90;99.90;;;;;;5084040;28;20497;-61
2022/06/22 04:05:18;;;;;;;7.15;4.63;;;15.00;99.90;;;;;;5088927;28;20702;-61
2022/06/22 04:07:45;;;;;;;8.03;5.20;;;15.00;99.90;;;;;;5087749;28;20402;-60
2022/06/22 04:10:38;;;;;;;6.63;5.20;;;15.00;99.90;;;;;;5088498;28;20464;-61
2022/06/22 04:13:11;;;;;;;7.80;5.20;;;14.90;99.90;;;;;;5089667;28;20370;-61
2022/06/22 04:16:09;;;;;;;6.53;5.13;;;14.90;99.90;;;;;;5087728;28;20401;-61
2022/06/22 04:18:46;;;;;;;5.55;4.82;;;14.90;99.90;;;;;;5060277;28;20377;-60
2022/06/22 04:21:17;;;;;;;7.78;5.18;;;15.00;99.90;;;;;;5086242;28;20455;-60
2022/06/22 04:24:11;;;;;;;7.18;5.53;;;15.00;99.90;;;;;;5088165;28;20492;-61
2022/06/22 04:26:47;;;;;;;6.72;4.68;;;14.90;99.90;;;;;;5086138;28;20813;-62
2022/06/22 04:29:24;;;;;;;7.65;5.13;;;15.00;99.90;;;;;;5086155;28;20786;-60
2022/06/22 04:32:06;;;;;;;7.97;5.30;;;15.10;99.90;;;;;;5084866;28;20841;-61
2022/06/22 04:34:45;;;;;;;9.13;5.40;;;15.00;99.90;;;;;;5085376;28;20437;-60
2022/06/22 04:37:40;;;;;;;9.43;5.60;;;15.00;99.90;;;;;;5085682;28;20633;-60
2022/06/22 04:40:20;;;;;;;6.85;5.50;;;15.00;99.90;;;;;;5073030;28;20383;-59
2022/06/22 04:42:48;;;;;;;9.10;5.50;;;15.00;99.90;;;;;;5082919;28;20808;-61
2022/06/22 04:45:26;;;;;;;6.65;4.95;;;15.00;99.90;;;;;;5085886;28;20465;-60
2022/06/22 04:47:51;;;;;;;7.28;5.15;;;15.10;99.90;;;;;;5088684;28;20390;-60
2022/06/22 04:50:17;;;;;;;8.40;5.00;;;15.00;99.90;;;;;;5090815;28;20634;-61
2022/06/22 04:52:48;;;;;;;7.40;4.47;;;15.10;99.90;;;;;;5091936;28;20628;-61
2022/06/22 04:55:17;;;;;;;8.90;5.30;;;15.10;99.90;;;;;;5089190;28;20677;-60
2022/06/22 04:57:47;;;;;;;9.98;5.30;;;15.10;99.90;;;;;;5088229;28;20531;-61
2022/06/22 05:00:19;;;;;;;8.23;5.60;;;15.10;99.90;;;;;;5089413;28;20534;-61
2022/06/22 05:02:50;;;;;;;8.38;4.65;;;15.10;99.90;;;;;;5088680;28;20381;-60
2022/06/22 05:05:25;;;;;;;9.82;5.15;;;15.10;99.90;;;;;;5086816;28;20932;-60
2022/06/22 05:08:14;;;;;;;8.27;4.43;;;15.10;99.90;;;;;;5079682;28;20753;-61
2022/06/22 05:10:49;;;;;;;6.57;4.38;;;15.00;99.90;;;;;;5084469;28;20767;-62
2022/06/22 05:13:25;;;;;;;8.43;4.70;;;15.10;99.90;;;;;;5084203;28;20801;-62
2022/06/22 05:15:55;;;;;;;9.05;4.40;;;15.10;99.90;;;;;;5088032;28;20473;-61
2022/06/22 05:18:27;;;;;;;8.27;4.20;;;15.10;99.90;;;;;;5084326;28;20469;-61
2022/06/22 05:21:01;;;;;;;7.80;3.90;;;15.20;99.90;;;;;;5094391;28;20393;-62
2022/06/22 05:23:29;;;;;;;5.03;3.50;;;15.20;99.90;;;;;;5094836;28;20388;-61
2022/06/22 05:25:59;;;;;;;5.63;3.47;;;15.30;99.90;;;;;;5094262;28;20378;-61
2022/06/22 05:28:35;;;;;;;5.43;3.70;;;15.40;99.90;;;;;;5094519;28;20394;-61
2022/06/22 05:31:10;;;;;;;8.63;3.88;;;15.40;99.90;;;;;;5094406;28;20374;-62
2022/06/22 05:33:39;;;;;;;8.27;3.67;;;15.50;99.90;;;;;;5093614;28;20373;-62
2022/06/22 05:36:09;;;;;;;8.90;3.40;;;15.50;99.90;;;;;;5093843;28;20699;-61
2022/06/22 05:38:38;;;;;;;4.97;3.42;;;15.50;99.90;;;;;;5093477;28;20386;-62
2022/06/22 05:41:09;;;;;;;6.80;3.22;;;15.50;99.90;;;;;;5093963;28;20479;-62
2022/06/22 05:43:39;;;;;;;5.35;3.28;;;15.60;99.90;;;;;;5091921;28;20389;-62
2022/06/22 05:46:06;;;;;;;8.20;3.63;;;15.60;99.90;;;;;;5091604;28;20735;-61
2022/06/22 05:48:47;;;;;;;6.18;3.20;;;15.70;99.90;;;;;;5091475;28;20430;-61
2022/06/22 05:51:28;;;;;;;7.22;3.35;;;15.80;99.90;;;;;;5091809;28;20405;-61
2022/06/22 05:54:02;;;;;;;5.68;3.30;;;15.70;99.90;;;;;;5092412;28;20445;-62
2022/06/22 05:56:39;;;;;;;5.68;3.10;;;15.80;99.90;;;;;;5092383;28;20390;-62
2022/06/22 05:59:11;;;;;;;4.72;3.00;;;15.80;99.90;;;;;;5091284;28;20374;-61
2022/06/22 06:01:41;;;;;;;8.02;2.95;;;15.90;99.90;;;;;;5090015;28;20397;-61
2022/06/22 06:04:26;;;;;;;4.35;2.92;;;15.90;99.90;;;;;;5090734;28;20773;-61
2022/06/22 06:06:57;;;;;;;6.03;3.22;;;16.00;99.90;;;;;;5090799;28;20879;-62
2022/06/22 06:09:24;;;;;;;6.38;3.30;;;16.00;99.90;;;;;;5090213;28;20538;-62
2022/06/22 06:12:01;;;;;;;6.82;3.50;;;16.00;99.90;;;;;;5089656;28;20382;-61
2022/06/22 06:14:32;;;;;;;6.38;3.15;;;16.10;99.90;;;;;;5089956;28;20850;-62
2022/06/22 06:17:05;;;;;;;5.28;3.08;;;16.10;99.90;;;;;;5089302;28;20386;-61
2022/06/22 06:19:35;;;;;;;4.68;2.60;;;16.20;99.90;;;;;;5087453;28;20728;-62
2022/06/22 06:22:04;;;;;;;5.50;3.07;;;16.20;99.90;;;;;;5087606;28;20469;-61
2022/06/22 06:27:48;;;;;;;5.68;3.28;;;16.30;99.90;;;;;;5086365;28;20409;-61
2022/06/22 06:30:40;;;;;;;5.07;2.90;;;16.40;99.90;;;;;;5085676;28;20597;-62
2022/06/22 06:33:20;;;;;;;5.43;3.15;;;16.40;99.90;;;;;;5086071;28;20385;-62
2022/06/22 06:35:51;;;;;;;6.87;3.10;;;16.50;99.90;;;;;;5087125;28;20408;-61
2022/06/22 06:38:35;;;;;;;4.88;3.05;;;16.50;99.90;;;;;;5088290;28;20378;-61
2022/06/22 06:41:15;;;;;;;8.38;3.50;;;16.50;99.90;;;;;;5086078;28;20384;-61
2022/06/22 06:43:47;;;;;;;4.75;2.80;;;16.50;99.90;;;;;;5085309;28;20446;-61
2022/06/22 06:46:37;;;;;;;4.82;2.50;;;16.50;99.90;;;;;;5085466;28;20386;-62
2022/06/22 06:49:20;;;;;;;7.40;3.67;;;16.60;99.90;;;;;;5083722;28;20406;-62
2022/06/22 06:51:53;;;;;;;6.87;3.17;;;16.60;99.90;;;;;;5084837;28;20375;-61
2022/06/22 06:54:27;;;;;;;4.82;2.65;;;16.70;99.90;;;;;;5085877;28;20714;-61
2022/06/22 06:57:04;;;;;;;6.32;3.38;;;16.70;99.90;;;;;;5084693;28;20374;-62
2022/06/22 06:59:31;;;;;;;4.97;2.72;;;16.70;99.90;;;;;;5085780;28;20382;-62
2022/06/22 07:02:05;;;;;;;6.57;3.10;;;16.80;99.90;;;;;;5085221;28;20481;-61
2022/06/22 07:04:33;;;;;;;5.63;3.10;;;16.90;99.90;;;;;;5086163;28;20413;-62
2022/06/22 07:07:25;;;;;;;5.63;3.20;;;16.90;99.90;;;;;;5084270;28;20402;-61
2022/06/22 07:09:55;;;;;;;6.77;3.43;;;17.00;99.90;;;;;;5086383;28;20439;-60
2022/06/22 07:12:26;;;;;;;7.63;3.88;;;16.90;99.90;;;;;;5087205;28;20378;-61
2022/06/22 07:14:53;;;;;;;7.70;3.80;;;17.00;99.90;;;;;;5086627;28;20431;-62
2022/06/22 07:17:22;;;;;;;6.63;3.47;;;16.90;99.90;;;;;;5087769;28;20378;-61
2022/06/22 07:20:16;;;;;;;8.18;3.60;;;16.80;99.90;;;;;;5086460;28;20398;-61
2022/06/22 07:22:50;;;;;;;9.90;4.15;;;16.80;99.90;;;;;;5085537;28;20419;-61
2022/06/22 07:25:36;;;;;;;7.63;3.90;;;16.80;99.90;;;;;;5084481;28;20378;-61
2022/06/22 07:28:08;;;;;;;7.68;3.58;;;16.90;99.90;;;;;;5080731;28;20905;-61
2022/06/22 07:30:59;;;;;;;4.68;2.63;;;17.00;99.90;;;;;;5082041;28;20382;-61
2022/06/22 07:33:42;;;;;;;3.57;2.57;;;17.00;99.90;;;;;;5082641;28;20386;-62
2022/06/22 07:36:31;;;;;;;6.00;3.47;;;17.10;99.90;;;;;;5080742;28;20401;-62
2022/06/22 07:39:04;;;;;;;6.47;3.53;;;17.20;99.90;;;;;;5082732;28;20741;-61
2022/06/22 07:41:31;;;;;;;6.88;4.07;;;17.10;99.90;;;;;;5081895;28;20417;-59
2022/06/22 07:44:04;;;;;;;8.50;3.80;;;17.10;99.90;;;;;;5081347;28;21042;-61
2022/06/22 07:46:46;;;;;;;6.03;3.08;;;17.10;99.90;;;;;;5081777;28;20692;-62
2022/06/22 07:49:25;;;;;;;3.83;2.63;;;17.10;99.90;;;;;;5082209;28;20388;-61
2022/06/22 07:51:54;;;;;;;6.28;3.38;;;17.20;99.90;;;;;;5084936;28;20455;-62
2022/06/22 07:54:40;;;;;;;4.13;2.97;;;17.30;99.90;;;;;;5083680;28;20518;-60
2022/06/22 07:57:18;;;;;;;5.70;4.20;;;17.40;99.90;;;;;;5085761;28;20374;-61
2022/06/22 07:59:49;;;;;;;5.60;3.10;;;17.50;99.90;;;;;;5085025;28;20832;-61
2022/06/22 08:02:45;;;;;;;5.27;2.80;;;17.60;99.90;;;;;;5084733;28;20797;-60
2022/06/22 08:05:15;;;;;;;8.55;3.80;;;17.60;99.90;;;;;;5083419;28;20437;-62
2022/06/22 08:08:06;;;;;;;3.85;2.75;;;17.70;99.90;;;;;;5081334;28;20405;-61
2022/06/22 08:11:12;;;;;;;5.95;3.13;;;17.80;99.90;;;;;;5081461;28;20414;-61
2022/06/22 08:13:49;;;;;;;3.80;2.50;;;17.80;99.90;;;;;;5030482;28;20559;-60
2022/06/22 08:16:20;;;;;;;4.90;3.00;;;17.90;99.90;;;;;;5081145;28;20792;-60
2022/06/22 08:18:46;;;;;;;4.38;3.08;;;17.90;99.90;;;;;;5080133;28;20474;-61
2022/06/22 08:21:18;;;;;;;5.10;2.90;;;18.00;99.90;;;;;;5080317;28;20390;-60
2022/06/22 08:23:45;;;;;;;6.93;4.25;;;18.10;99.90;;;;;;5081274;28;20386;-60
2022/06/22 08:26:18;;;;;;;6.00;3.40;;;18.10;99.90;;;;;;5081851;28;20489;-61
2022/06/22 08:28:44;;;;;;;5.13;3.20;;;18.10;99.90;;;;;;5083321;28;20398;-60
2022/06/22 08:31:10;;;;;;;5.00;3.40;;;18.20;99.90;;;;;;5084886;28;20454;-60
2022/06/22 08:33:52;;;;;;;5.73;2.87;;;18.30;99.90;;;;;;5082487;28;20378;-60
2022/06/22 08:36:26;;;;;;;7.82;4.55;;;18.30;99.90;;;;;;5079283;28;20797;-60
2022/06/22 08:39:09;;;;;;;10.27;4.95;;;18.20;99.90;;;;;;5081572;28;20443;-60
2022/06/22 08:41:41;;;;;;;7.22;4.57;;;18.10;99.90;;;;;;5079864;28;20374;-60
2022/06/22 08:44:19;;;;;;;9.88;4.20;;;18.10;99.90;;;;;;5079509;28;20377;-62
2022/06/22 08:47:11;;;;;;;5.80;4.43;;;18.10;99.90;;;;;;5080344;28;20401;-60
2022/06/22 08:50:19;;;;;;;8.93;4.55;;;18.10;99.90;;;;;;5086198;28;20386;-61
2022/06/22 08:53:20;;;;;;;7.70;4.28;;;18.10;99.90;;;;;;5089630;28;20386;-61
2022/06/22 08:56:07;;;;;;;6.65;4.82;;;18.30;99.90;;;;;;5083778;28;20401;-61
2022/06/22 08:58:56;;;;;;;8.50;4.73;;;18.30;99.90;;;;;;5088807;28;20378;-60
2022/06/22 09:01:40;;;;;;;6.77;4.23;;;18.40;99.90;;;;;;5051152;28;20854;-61
2022/06/22 09:04:21;;;;;;;10.15;5.18;;;18.50;99.90;;;;;;5087336;28;20837;-60
2022/06/22 09:06:59;;;;;;;6.07;3.50;;;18.70;99.90;;;;;;5088285;28;20474;-61
2022/06/22 09:09:42;;;;;;;6.67;4.57;;;18.80;99.90;;;;;;5086709;28;20385;-61
2022/06/22 09:12:27;;;;;;;9.95;5.00;;;18.80;99.90;;;;;;5085751;28;20455;-61
2022/06/22 09:15:35;;;;;;;6.80;3.97;;;18.70;99.90;;;;;;5084439;28;20384;-61
2022/06/22 09:18:10;;;;;;;4.57;3.55;;;18.90;99.90;;;;;;5040748;28;20385;-61
2022/06/22 09:20:53;;;;;;;8.57;4.93;;;19.00;99.90;;;;;;5085489;28;20389;-62
2022/06/22 09:23:40;;;;;;;7.82;4.80;;;19.10;99.90;;;;;;5085272;28;20450;-61
2022/06/22 09:26:33;;;;;;;8.93;4.53;;;19.10;99.90;;;;;;5084461;28;20385;-61
2022/06/22 09:29:02;;;;;;;10.50;5.35;;;19.20;99.90;;;;;;5086172;28;20398;-61
2022/06/22 09:31:53;;;;;;;7.68;4.63;;;19.10;99.90;;;;;;5089091;28;20370;-60
2022/06/22 09:34:25;;;;;;;5.40;3.50;;;19.10;99.90;;;;;;5088081;28;20378;-60
2022/06/22 09:37:29;;;;;;;9.23;5.10;;;19.20;99.90;;;;;;5089301;28;20400;-60
2022/06/22 09:40:17;;;;;;;5.55;3.50;;;19.30;99.90;;;;;;5088482;28;20396;-60
2022/06/22 09:42:56;;;;;;;8.63;4.97;;;19.30;99.90;;;;;;5087563;28;20382;-60
2022/06/22 09:45:36;;;;;;;7.28;4.10;;;19.30;99.90;;;;;;5086874;28;21035;-60
2022/06/22 09:48:30;;;;;;;6.85;4.13;;;19.40;99.90;;;;;;5083713;28;20433;-60
2022/06/22 09:51:20;;;;;;;4.45;3.58;;;19.50;99.90;;;;;;5087527;28;20386;-61
2022/06/22 09:57:52;;;;;;;4.43;3.67;;;19.50;99.90;;;;;;5089240;28;20357;-61
2022/06/22 10:00:26;;;;;;;6.75;4.10;;;19.60;99.90;;;;;;5090139;28;20446;-60
2022/06/22 10:03:23;;;;;;;3.60;2.63;;;19.60;99.90;;;;;;5088876;28;20994;-60
2022/06/22 10:06:13;;;;;;;5.43;3.13;;;19.80;99.90;;;;;;5088182;28;20509;-60
2022/06/22 10:08:55;;;;;;;8.52;5.13;;;19.90;99.90;;;;;;5089426;28;21427;-61
2022/06/22 10:11:45;;;;;;;8.60;4.82;;;19.80;99.90;;;;;;5091628;28;20535;-60
2022/06/22 10:14:36;;;;;;;7.97;4.65;;;19.70;99.90;;;;;;5090315;28;20400;-60
2022/06/22 10:17:25;;;;;;;6.47;4.00;;;19.60;99.90;;;;;;5089154;28;20374;-61
2022/06/22 10:20:17;;;;;;;7.60;4.73;;;19.80;99.90;;;;;;5088650;28;20405;-61
2022/06/22 10:23:08;;;;;;;6.93;4.40;;;19.90;99.90;;;;;;5088838;28;20493;-62
2022/06/22 10:25:50;;;;;;;5.28;4.07;;;20.00;99.90;;;;;;5085581;28;20386;-61
2022/06/22 10:28:37;;;;;;;7.65;5.00;;;20.10;99.90;;;;;;5084767;28;20402;-62
2022/06/22 10:31:31;;;;;;;9.10;5.38;;;20.30;99.90;;;;;;5085208;28;20382;-62
2022/06/22 10:34:22;;;;;;;8.13;4.95;;;20.30;99.90;;;;;;5080136;28;20442;-62
2022/06/22 10:36:53;;;;;;;6.70;4.50;;;20.30;99.90;;;;;;5076157;28;20549;-62
2022/06/22 10:39:28;;;;;;;7.07;5.07;;;20.30;99.90;;;;;;5076166;28;20823;-61
2022/06/22 10:45:20;;;;;;;7.70;4.00;;;20.30;99.90;;;;;;5074809;28;20442;-61
2022/06/22 10:48:20;;;;;;;6.18;3.67;;;20.40;99.90;;;;;;5076759;28;20512;-61
2022/06/22 10:51:09;;;;;;;7.03;4.32;;;20.20;99.90;;;;;;5076432;28;20805;-61
2022/06/22 10:53:46;;;;;;;4.27;3.07;;;20.10;99.90;;;;;;5082906;28;20909;-61
2022/06/22 10:56:21;;;;;;;4.80;3.40;;;20.10;99.90;;;;;;5081089;28;20496;-61
2022/06/22 10:59:15;;;;;;;5.15;2.80;;;20.20;99.90;;;;;;5080414;28;20797;-62
2022/06/22 11:01:52;;;;;;;6.45;3.53;;;20.30;99.90;;;;;;5084353;28;20392;-61
2022/06/22 11:04:20;;;;;;;6.38;3.17;;;20.30;99.90;;;;;;5084705;28;20386;-61
2022/06/22 11:07:07;;;;;;;5.10;2.92;;;20.40;99.90;;;;;;5085381;28;20394;-61
2022/06/22 11:09:40;;;;;;;3.40;2.40;;;20.30;99.90;;;;;;5085672;28;20471;-60
2022/06/22 11:12:25;;;;;;;5.72;3.17;;;20.40;99.90;;;;;;5085293;28;20828;-61
2022/06/22 11:14:54;;;;;;;5.78;3.45;;;20.40;99.90;;;;;;5078227;28;20437;-61
2022/06/22 11:17:35;;;;;;;3.72;2.50;;;20.40;99.90;;;;;;5076306;28;20389;-61
2022/06/22 11:20:07;;;;;;;3.08;2.20;;;20.50;99.90;;;;;;5075614;28;20393;-61
2022/06/22 11:22:45;;;;;;;6.63;3.55;;;20.70;99.90;;;;;;5076941;28;20585;-61
2022/06/22 11:31:29;;;;;;;5.55;2.80;;;20.70;99.90;;;;;;5077381;28;20422;-61
2022/06/22 11:34:19;;;;;;;4.73;2.73;;;20.70;99.90;;;;;;5077649;28;20400;-61
2022/06/22 11:37:17;;;;;;;4.43;2.40;;;20.70;99.90;;;;;;5077149;28;20386;-61
2022/06/22 11:40:05;;;;;;;5.95;2.90;;;20.70;99.90;;;;;;5060855;28;20439;-61
2022/06/22 11:43:08;;;;;;;6.18;2.33;;;20.80;99.90;;;;;;5068083;28;20378;-61
2022/06/22 11:45:55;;;;;;;4.75;2.53;;;21.00;99.90;;;;;;5067517;28;20390;-61
2022/06/22 11:49:00;;;;;;;5.32;2.50;;;21.20;99.90;;;;;;5068541;28;20937;-61
2022/06/22 11:51:39;;;;;;;6.30;3.17;;;21.40;99.90;;;;;;5070818;28;20509;-61
2022/06/22 11:54:19;;;;;;;6.43;2.75;;;21.50;99.90;;;;;;5070462;28;20795;-61
2022/06/22 11:56:59;;;;;;;6.65;2.60;;;21.60;99.90;;;;;;5071149;28;20489;-61
2022/06/22 11:59:53;;;;;;;3.15;2.10;;;22.00;99.90;;;;;;5073855;28;20657;-61
2022/06/22 12:02:37;;;;;;;3.72;2.28;;;22.10;99.90;;;;;;5073559;28;20805;-61
2022/06/22 12:05:34;;;;;;;3.58;2.05;;;22.20;99.90;;;;;;5076250;28;20516;-61
2022/06/22 12:08:07;;;;;;;4.32;2.65;;;22.50;99.90;;;;;;5075044;28;20413;-61
2022/06/22 12:10:46;;;;;;;4.80;1.95;;;22.80;99.90;;;;;;5079938;28;20430;-61
2022/06/22 12:13:11;;;;;;;4.88;2.60;;;23.20;99.90;;;;;;5078281;28;20393;-62
2022/06/22 12:15:59;;;;;;;3.33;1.98;;;23.30;99.90;;;;;;5077353;28;20378;-61
2022/06/22 12:18:52;;;;;;;6.03;3.03;;;23.40;99.90;;;;;;5082162;28;20475;-62
2022/06/22 12:21:26;;;;;;;3.75;2.58;;;23.30;99.90;;;;;;5079934;28;20389;-61
2022/06/22 12:23:59;;;;;;;6.40;3.00;;;23.60;99.90;;;;;;5079627;28;20389;-61
2022/06/22 12:26:38;;;;;;;4.82;1.95;;;23.90;99.90;;;;;;5080621;28;20456;-62
2022/06/22 12:29:24;;;;;;;3.00;1.70;;;23.90;99.90;;;;;;5081206;28;20453;-62
2022/06/22 12:32:01;;;;;;;5.13;2.40;;;24.00;99.90;;;;;;5076837;28;20666;-60
2022/06/22 12:35:05;;;;;;;5.32;2.25;;;23.80;99.90;;;;;;5076585;28;20425;-61
2022/06/22 12:37:46;;;;;;;5.47;2.00;;;24.00;99.90;;;;;;5065673;28;20752;-62
2022/06/22 12:40:42;;;;;;;3.55;2.17;;;24.20;99.90;;;;;;5073234;28;20831;-62
2022/06/22 12:43:23;;;;;;;3.92;2.10;;;24.50;99.90;;;;;;5073843;28;20804;-62
2022/06/22 12:46:26;;;;;;;4.53;2.10;;;24.60;99.90;;;;;;5071817;28;20394;-62
2022/06/22 12:49:29;;;;;;;5.10;2.50;;;24.80;99.90;;;;;;5060090;28;20398;-62
2022/06/22 12:52:05;;;;;;;3.30;2.25;;;24.60;99.90;;;;;;5074122;28;20385;-61
2022/06/22 12:54:36;;;;;;;2.47;1.50;;;24.80;99.90;;;;;;5078327;28;20395;-62
2022/06/22 12:57:10;;;;;;;5.35;1.98;;;25.10;99.90;;;;;;5080540;28;20396;-60
2022/06/22 12:59:46;;;;;;;2.58;1.90;;;25.20;99.90;;;;;;5085774;28;20382;-61
2022/06/22 13:02:18;;;;;;;3.47;2.17;;;25.30;99.90;;;;;;5086832;28;20382;-60
2022/06/22 13:04:47;;;;;;;4.80;2.30;;;25.40;99.90;;;;;;5081929;28;20445;-60
2022/06/22 13:07:18;;;;;;;4.03;2.08;;;25.30;99.90;;;;;;5075423;28;20839;-60
2022/06/22 13:09:46;;;;;;;7.10;2.43;;;25.00;99.90;;;;;;5076332;28;20600;-60
2022/06/22 13:12:40;;;;;;;3.90;2.25;;;24.90;99.90;;;;;;5073824;28;20417;-60
2022/06/22 13:15:25;;;;;;;3.38;1.90;;;24.60;99.90;;;;;;5073149;28;20445;-61
2022/06/22 13:18:16;;;;;;;7.20;2.20;;;24.80;99.90;;;;;;5074260;28;20887;-60
2022/06/22 13:20:59;;;;;;;2.75;1.58;;;25.00;99.90;;;;;;5034073;28;20914;-60
2022/06/22 13:23:49;;;;;;;4.70;2.30;;;25.30;99.90;;;;;;5073454;28;20734;-60
2022/06/22 13:26:35;;;;;;;4.18;2.15;;;25.50;99.90;;;;;;5072275;28;20433;-60
2022/06/22 13:29:22;;;;;;;3.42;1.70;;;25.50;99.90;;;;;;5072868;28;20697;-61
2022/06/22 13:31:51;;;;;;;2.95;2.10;;;25.50;99.90;;;;;;5074293;28;20381;-61
2022/06/22 13:34:22;;;;;;;4.25;1.95;;;25.80;99.90;;;;;;5072598;28;20462;-60
2022/06/22 13:37:14;;;;;;;5.70;1.70;;;25.80;99.90;;;;;;5076847;28;20390;-60
2022/06/22 13:39:48;;;;;;;5.13;1.43;;;25.80;99.90;;;;;;5079241;28;20378;-60
2022/06/22 13:42:29;;;;;;;4.88;1.70;;;25.90;99.90;;;;;;5079937;28;20399;-60
2022/06/22 13:45:31;;;;;;;3.22;1.83;;;26.20;99.90;;;;;;5080307;28;20769;-61
2022/06/22 13:48:16;;;;;;;3.38;1.60;;;26.30;99.90;;;;;;5085137;28;20471;-61
2022/06/22 13:53:58;;;;;;;2.90;1.70;;;27.30;99.90;;;;;;5084157;28;20385;-61
2022/06/22 13:56:45;;;;;;;3.78;1.95;;;27.60;99.90;;;;;;5084527;28;20386;-61
2022/06/22 13:59:29;;;;;;;3.72;1.80;;;27.40;99.90;;;;;;5081818;28;20370;-61
2022/06/22 14:02:10;;;;;;;5.57;1.83;;;27.20;99.90;;;;;;5081276;28;20641;-61
2022/06/22 14:05:03;;;;;;;3.55;1.75;;;27.30;99.90;;;;;;5079006;28;20501;-61
2022/06/22 14:07:32;;;;;;;3.43;1.50;;;27.50;99.90;;;;;;5061216;28;20466;-61
2022/06/22 14:10:15;;;;;;;2.70;1.40;;;27.90;99.90;;;;;;5073398;28;20379;-61
2022/06/22 14:12:49;;;;;;;2.83;1.50;;;28.20;99.90;;;;;;5070295;28;20425;-60
2022/06/22 14:15:37;;;;;;;4.00;1.70;;;28.30;99.90;;;;;;5068419;28;20674;-61